sensor_id;sensor_type;location;lat;lon;timestamp;pressure;altitude;pressure_sealevel;temperature;humidity
79123;BME280;68526;44.600;26.032;2023-06-04T00:00:08;100871.78;;;17.28;43.17
79123;BME280;68526;44.600;26.032;2023-06-04T00:00:25;100874.53;;;17.28;43.54
79123;BME280;68526;44.600;26.032;2023-06-04T00:00:41;100874.91;;;17.26;43.64
79123;BME280;68526;44.600;26.032;2023-06-04T00:00:57;100873.38;;;17.29;43.89
79123;BME280;68526;44.600;26.032;2023-06-04T00:01:13;100877.31;;;17.28;44.05
79123;BME280;68526;44.600;26.032;2023-06-04T00:01:30;100875.22;;;17.25;43.92
79123;BME280;68526;44.600;26.032;2023-06-04T00:01:46;100866.47;;;17.23;43.25
79123;BME280;68526;44.600;26.032;2023-06-04T00:02:02;100870.50;;;17.25;43.38
79123;BME280;68526;44.600;26.032;2023-06-04T00:02:18;100874.00;;;17.22;43.37
79123;BME280;68526;44.600;26.032;2023-06-04T00:02:34;100870.41;;;17.22;43.46
79123;BME280;68526;44.600;26.032;2023-06-04T00:02:49;100864.53;;;17.23;43.60
79123;BME280;68526;44.600;26.032;2023-06-04T00:03:06;100876.41;;;17.24;43.88
79123;BME280;68526;44.600;26.032;2023-06-04T00:03:22;100872.38;;;17.21;43.23
79123;BME280;68526;44.600;26.032;2023-06-04T00:03:38;100863.59;;;17.19;43.21
79123;BME280;68526;44.600;26.032;2023-06-04T00:03:53;100874.69;;;17.19;43.25
79123;BME280;68526;44.600;26.032;2023-06-04T00:04:09;100869.97;;;17.20;43.36
79123;BME280;68526;44.600;26.032;2023-06-04T00:04:25;100875.50;;;17.20;43.64
79123;BME280;68526;44.600;26.032;2023-06-04T00:04:42;100868.00;;;17.20;43.86
79123;BME280;68526;44.600;26.032;2023-06-04T00:04:58;100862.47;;;17.20;43.91
79123;BME280;68526;44.600;26.032;2023-06-04T00:05:15;100872.03;;;17.23;43.75
79123;BME280;68526;44.600;26.032;2023-06-04T00:05:32;100863.88;;;17.14;43.52
79123;BME280;68526;44.600;26.032;2023-06-04T00:05:47;100871.91;;;17.19;43.27
79123;BME280;68526;44.600;26.032;2023-06-04T00:06:03;100869.63;;;17.21;43.65
79123;BME280;68526;44.600;26.032;2023-06-04T00:06:20;100872.03;;;17.23;43.52
79123;BME280;68526;44.600;26.032;2023-06-04T00:06:36;100871.03;;;17.15;43.41
79123;BME280;68526;44.600;26.032;2023-06-04T00:06:52;100873.44;;;17.17;43.37
79123;BME280;68526;44.600;26.032;2023-06-04T00:07:07;100868.69;;;17.17;43.61
79123;BME280;68526;44.600;26.032;2023-06-04T00:07:23;100877.44;;;17.19;43.52
79123;BME280;68526;44.600;26.032;2023-06-04T00:07:39;100868.34;;;17.19;43.58
79123;BME280;68526;44.600;26.032;2023-06-04T00:07:56;100869.97;;;17.20;43.72
79123;BME280;68526;44.600;26.032;2023-06-04T00:08:12;100855.91;;;17.13;43.60
79123;BME280;68526;44.600;26.032;2023-06-04T00:08:27;100872.03;;;17.23;44.01
79123;BME280;68526;44.600;26.032;2023-06-04T00:08:43;100877.56;;;17.23;43.92
79123;BME280;68526;44.600;26.032;2023-06-04T00:08:59;100868.44;;;17.22;43.96
79123;BME280;68526;44.600;26.032;2023-06-04T00:09:15;100873.19;;;17.22;44.01
79123;BME280;68526;44.600;26.032;2023-06-04T00:09:31;100874.78;;;17.23;43.94
79123;BME280;68526;44.600;26.032;2023-06-04T00:09:47;100871.22;;;17.22;44.69
79123;BME280;68526;44.600;26.032;2023-06-04T00:10:04;100874.44;;;17.24;43.81
79123;BME280;68526;44.600;26.032;2023-06-04T00:10:20;100885.19;;;17.26;44.01
79123;BME280;68526;44.600;26.032;2023-06-04T00:10:36;100879.53;;;17.22;43.52
79123;BME280;68526;44.600;26.032;2023-06-04T00:10:55;100871.22;;;17.22;43.82
79123;BME280;68526;44.600;26.032;2023-06-04T00:11:11;100878.38;;;17.23;44.32
79123;BME280;68526;44.600;26.032;2023-06-04T00:11:27;100874.44;;;17.24;44.37
79123;BME280;68526;44.600;26.032;2023-06-04T00:11:43;100876.75;;;17.22;44.40
79123;BME280;68526;44.600;26.032;2023-06-04T00:12:01;100875.22;;;17.25;43.88
79123;BME280;68526;44.600;26.032;2023-06-04T00:12:17;100880.78;;;17.25;43.70
79123;BME280;68526;44.600;26.032;2023-06-04T00:12:34;100876.41;;;17.24;43.94
79123;BME280;68526;44.600;26.032;2023-06-04T00:12:50;100881.56;;;17.25;43.65
79123;BME280;68526;44.600;26.032;2023-06-04T00:13:05;100879.16;;;17.24;43.73
79123;BME280;68526;44.600;26.032;2023-06-04T00:13:21;100883.91;;;17.23;43.75
79123;BME280;68526;44.600;26.032;2023-06-04T00:13:37;100876.31;;;17.20;43.75
79123;BME280;68526;44.600;26.032;2023-06-04T00:13:53;100886.31;;;17.25;43.61
79123;BME280;68526;44.600;26.032;2023-06-04T00:14:08;100881.50;;;17.22;43.57
79123;BME280;68526;44.600;26.032;2023-06-04T00:14:25;100879.41;;;17.19;43.41
79123;BME280;68526;44.600;26.032;2023-06-04T00:14:41;100881.38;;;17.18;43.50
79123;BME280;68526;44.600;26.032;2023-06-04T00:14:57;100878.97;;;17.17;43.60
79123;BME280;68526;44.600;26.032;2023-06-04T00:15:14;100883.47;;;17.21;43.70
79123;BME280;68526;44.600;26.032;2023-06-04T00:15:31;100884.25;;;17.22;43.79
79123;BME280;68526;44.600;26.032;2023-06-04T00:15:47;100884.63;;;17.20;43.37
79123;BME280;68526;44.600;26.032;2023-06-04T00:16:03;100877.91;;;17.21;43.54
79123;BME280;68526;44.600;26.032;2023-06-04T00:16:20;100883.09;;;17.23;43.96
79123;BME280;68526;44.600;26.032;2023-06-04T00:16:35;100883.09;;;17.23;44.09
79123;BME280;68526;44.600;26.032;2023-06-04T00:16:51;100884.25;;;17.22;44.07
79123;BME280;68526;44.600;26.032;2023-06-04T00:17:08;100881.94;;;17.24;44.10
79123;BME280;68526;44.600;26.032;2023-06-04T00:17:24;100884.34;;;17.25;44.16
79123;BME280;68526;44.600;26.032;2023-06-04T00:17:40;100877.19;;;17.24;43.86
79123;BME280;68526;44.600;26.032;2023-06-04T00:17:56;100885.19;;;17.26;44.03
79123;BME280;68526;44.600;26.032;2023-06-04T00:18:12;100886.31;;;17.25;43.60
79123;BME280;68526;44.600;26.032;2023-06-04T00:18:30;100884.34;;;17.25;43.95
79123;BME280;68526;44.600;26.032;2023-06-04T00:18:45;100879.16;;;17.24;43.62
79123;BME280;68526;44.600;26.032;2023-06-04T00:19:01;100880.78;;;17.25;43.65
79123;BME280;68526;44.600;26.032;2023-06-04T00:19:17;100887.84;;;17.22;43.28
79123;BME280;68526;44.600;26.032;2023-06-04T00:19:33;100883.47;;;17.21;43.34
79123;BME280;68526;44.600;26.032;2023-06-04T00:19:50;100886.13;;;17.18;43.29
79123;BME280;68526;44.600;26.032;2023-06-04T00:20:06;100890.16;;;17.20;43.68
79123;BME280;68526;44.600;26.032;2023-06-04T00:20:23;100891.75;;;17.21;43.74
79123;BME280;68526;44.600;26.032;2023-06-04T00:20:39;100882.97;;;17.19;43.27
79123;BME280;68526;44.600;26.032;2023-06-04T00:20:55;100889.34;;;17.20;43.13
79123;BME280;68526;44.600;26.032;2023-06-04T00:21:12;100886.91;;;17.18;43.62
79123;BME280;68526;44.600;26.032;2023-06-04T00:21:28;100888.06;;;17.17;43.51
79123;BME280;68526;44.600;26.032;2023-06-04T00:21:45;100886.59;;;17.20;43.75
79123;BME280;68526;44.600;26.032;2023-06-04T00:22:00;100882.28;;;17.22;44.12
79123;BME280;68526;44.600;26.032;2023-06-04T00:22:16;100890.59;;;17.22;43.85
79123;BME280;68526;44.600;26.032;2023-06-04T00:22:33;100883.47;;;17.21;43.15
79123;BME280;68526;44.600;26.032;2023-06-04T00:22:49;100885.06;;;17.22;43.23
79123;BME280;68526;44.600;26.032;2023-06-04T00:23:05;100888.53;;;17.19;42.89
79123;BME280;68526;44.600;26.032;2023-06-04T00:23:20;100889.69;;;17.18;43.15
79123;BME280;68526;44.600;26.032;2023-06-04T00:23:36;100885.75;;;17.19;43.74
79123;BME280;68526;44.600;26.032;2023-06-04T00:23:53;100884.63;;;17.20;43.18
79123;BME280;68526;44.600;26.032;2023-06-04T00:24:09;100882.91;;;17.16;43.20
79123;BME280;68526;44.600;26.032;2023-06-04T00:24:27;100889.34;;;17.20;43.13
79123;BME280;68526;44.600;26.032;2023-06-04T00:24:43;100891.28;;;17.19;43.32
79123;BME280;68526;44.600;26.032;2023-06-04T00:24:59;100887.38;;;17.20;43.70
79123;BME280;68526;44.600;26.032;2023-06-04T00:25:15;100898.47;;;17.20;43.84
79123;BME280;68526;44.600;26.032;2023-06-04T00:25:31;100887.38;;;17.20;43.70
79123;BME280;68526;44.600;26.032;2023-06-04T00:25:47;100886.91;;;17.18;43.26
79123;BME280;68526;44.600;26.032;2023-06-04T00:26:03;100886.91;;;17.18;43.05
79123;BME280;68526;44.600;26.032;2023-06-04T00:26:19;100885.75;;;17.19;43.17
79123;BME280;68526;44.600;26.032;2023-06-04T00:26:35;100884.94;;;17.19;43.61
79123;BME280;68526;44.600;26.032;2023-06-04T00:26:51;100886.22;;;17.21;43.62
79123;BME280;68526;44.600;26.032;2023-06-04T00:27:08;100889.00;;;17.21;44.03
79123;BME280;68526;44.600;26.032;2023-06-04T00:27:24;100886.66;;;17.23;43.87
79123;BME280;68526;44.600;26.032;2023-06-04T00:27:40;100885.88;;;17.23;43.67
79123;BME280;68526;44.600;26.032;2023-06-04T00:27:55;100891.75;;;17.21;43.33
79123;BME280;68526;44.600;26.032;2023-06-04T00:28:11;100888.53;;;17.19;43.31
79123;BME280;68526;44.600;26.032;2023-06-04T00:28:27;100891.66;;;17.18;43.21
79123;BME280;68526;44.600;26.032;2023-06-04T00:28:43;100882.91;;;17.16;44.12
79123;BME280;68526;44.600;26.032;2023-06-04T00:29:00;100887.28;;;17.17;43.54
79123;BME280;68526;44.600;26.032;2023-06-04T00:29:16;100884.50;;;17.17;43.32
79123;BME280;68526;44.600;26.032;2023-06-04T00:29:32;100882.91;;;17.16;43.77
79123;BME280;68526;44.600;26.032;2023-06-04T00:29:47;100890.16;;;17.20;43.43
79123;BME280;68526;44.600;26.032;2023-06-04T00:30:04;100884.25;;;17.22;43.62
79123;BME280;68526;44.600;26.032;2023-06-04T00:30:21;100885.06;;;17.22;44.00
79123;BME280;68526;44.600;26.032;2023-06-04T00:30:37;100883.81;;;17.20;43.26
79123;BME280;68526;44.600;26.032;2023-06-04T00:30:53;100886.22;;;17.21;43.26
79123;BME280;68526;44.600;26.032;2023-06-04T00:31:08;100888.53;;;17.19;43.21
79123;BME280;68526;44.600;26.032;2023-06-04T00:31:25;100883.34;;;17.18;43.39
79123;BME280;68526;44.600;26.032;2023-06-04T00:31:41;100886.13;;;17.18;43.11
79123;BME280;68526;44.600;26.032;2023-06-04T00:31:58;100879.31;;;17.15;43.01
79123;BME280;68526;44.600;26.032;2023-06-04T00:32:14;100876.91;;;17.14;42.84
79123;BME280;68526;44.600;26.032;2023-06-04T00:32:30;100883.69;;;17.16;43.20
79123;BME280;68526;44.600;26.032;2023-06-04T00:32:46;100890.03;;;17.17;43.20
79123;BME280;68526;44.600;26.032;2023-06-04T00:33:02;100887.63;;;17.15;43.33
79123;BME280;68526;44.600;26.032;2023-06-04T00:33:19;100885.66;;;17.16;43.54
79123;BME280;68526;44.600;26.032;2023-06-04T00:33:35;100882.09;;;17.15;43.41
79123;BME280;68526;44.600;26.032;2023-06-04T00:33:51;100882.91;;;17.16;43.44
79123;BME280;68526;44.600;26.032;2023-06-04T00:34:06;100886.47;;;17.16;43.75
79123;BME280;68526;44.600;26.032;2023-06-04T00:34:22;100885.31;;;17.17;43.75
79123;BME280;68526;44.600;26.032;2023-06-04T00:34:39;100884.94;;;17.19;43.65
79123;BME280;68526;44.600;26.032;2023-06-04T00:34:56;100886.91;;;17.18;43.41
79123;BME280;68526;44.600;26.032;2023-06-04T00:35:13;100890.03;;;17.17;43.40
79123;BME280;68526;44.600;26.032;2023-06-04T00:35:31;100883.25;;;17.14;43.39
79123;BME280;68526;44.600;26.032;2023-06-04T00:35:48;100880.00;;;17.12;43.05
79123;BME280;68526;44.600;26.032;2023-06-04T00:36:05;100885.22;;;17.14;43.12
79123;BME280;68526;44.600;26.032;2023-06-04T00:36:21;100884.88;;;17.15;43.47
79123;BME280;68526;44.600;26.032;2023-06-04T00:36:36;100887.06;;;17.09;43.04
79123;BME280;68526;44.600;26.032;2023-06-04T00:36:52;100881.97;;;17.12;43.18
79123;BME280;68526;44.600;26.032;2023-06-04T00:37:08;100887.88;;;17.10;43.07
79123;BME280;68526;44.600;26.032;2023-06-04T00:37:25;100883.94;;;17.11;43.17
79123;BME280;68526;44.600;26.032;2023-06-04T00:37:41;100881.97;;;17.12;42.98
79123;BME280;68526;44.600;26.032;2023-06-04T00:37:57;100889.47;;;17.11;43.09
79123;BME280;68526;44.600;26.032;2023-06-04T00:38:13;100881.91;;;17.08;43.24
79123;BME280;68526;44.600;26.032;2023-06-04T00:38:28;100885.09;;;17.10;43.21
79123;BME280;68526;44.600;26.032;2023-06-04T00:38:44;100895.72;;;17.08;43.05
79123;BME280;68526;44.600;26.032;2023-06-04T00:39:01;100891.00;;;17.08;43.22
79123;BME280;68526;44.600;26.032;2023-06-04T00:39:17;100889.47;;;17.11;43.17
79123;BME280;68526;44.600;26.032;2023-06-04T00:39:32;100888.69;;;17.11;43.33
79123;BME280;68526;44.600;26.032;2023-06-04T00:39:49;100881.53;;;17.09;43.65
79123;BME280;68526;44.600;26.032;2023-06-04T00:40:06;100887.88;;;17.10;43.66
79123;BME280;68526;44.600;26.032;2023-06-04T00:40:23;100885.91;;;17.11;43.29
79123;BME280;68526;44.600;26.032;2023-06-04T00:40:39;100887.88;;;17.10;43.43
79123;BME280;68526;44.600;26.032;2023-06-04T00:40:55;100889.38;;;17.07;43.34
79123;BME280;68526;44.600;26.032;2023-06-04T00:41:11;100889.38;;;17.07;43.40
79123;BME280;68526;44.600;26.032;2023-06-04T00:41:26;100890.19;;;17.08;43.34
79123;BME280;68526;44.600;26.032;2023-06-04T00:41:42;100896.41;;;17.05;43.53
79123;BME280;68526;44.600;26.032;2023-06-04T00:41:59;100888.91;;;17.05;43.01
79123;BME280;68526;44.600;26.032;2023-06-04T00:42:15;100885.78;;;17.07;43.15
79123;BME280;68526;44.600;26.032;2023-06-04T00:42:31;100890.53;;;17.06;43.07
79123;BME280;68526;44.600;26.032;2023-06-04T00:42:46;100889.72;;;17.06;43.20
79123;BME280;68526;44.600;26.032;2023-06-04T00:43:02;100889.72;;;17.06;43.02
79123;BME280;68526;44.600;26.032;2023-06-04T00:43:18;100888.13;;;17.05;43.05
79123;BME280;68526;44.600;26.032;2023-06-04T00:43:35;100891.59;;;17.02;42.98
79123;BME280;68526;44.600;26.032;2023-06-04T00:43:51;100891.59;;;17.02;43.13
79123;BME280;68526;44.600;26.032;2023-06-04T00:44:11;100892.41;;;17.02;43.28
79123;BME280;68526;44.600;26.032;2023-06-04T00:44:27;100889.28;;;17.04;43.25
79123;BME280;68526;44.600;26.032;2023-06-04T00:44:42;100889.28;;;17.04;43.62
79123;BME280;68526;44.600;26.032;2023-06-04T00:45:00;100885.72;;;17.03;43.48
79123;BME280;68526;44.600;26.032;2023-06-04T00:45:16;100890.88;;;17.05;43.73
79123;BME280;68526;44.600;26.032;2023-06-04T00:45:34;100882.22;;;17.06;43.71
79123;BME280;68526;44.600;26.032;2023-06-04T00:45:50;100888.91;;;17.05;43.37
79123;BME280;68526;44.600;26.032;2023-06-04T00:46:06;100890.88;;;17.05;43.48
79123;BME280;68526;44.600;26.032;2023-06-04T00:46:23;100888.13;;;17.05;43.50
79123;BME280;68526;44.600;26.032;2023-06-04T00:46:40;100884.09;;;17.02;43.30
79123;BME280;68526;44.600;26.032;2023-06-04T00:46:56;100889.28;;;17.04;44.12
79123;BME280;68526;44.600;26.032;2023-06-04T00:47:12;100888.13;;;17.05;43.92
79123;BME280;68526;44.600;26.032;2023-06-04T00:47:28;100887.31;;;17.04;44.19
79123;BME280;68526;44.600;26.032;2023-06-04T00:47:44;100885.34;;;17.05;43.92
79123;BME280;68526;44.600;26.032;2023-06-04T00:48:00;100886.16;;;17.05;43.44
79123;BME280;68526;44.600;26.032;2023-06-04T00:48:17;100886.16;;;17.05;43.22
79123;BME280;68526;44.600;26.032;2023-06-04T00:48:33;100883.38;;;17.05;43.33
79123;BME280;68526;44.600;26.032;2023-06-04T00:48:49;100883.03;;;17.07;43.63
79123;BME280;68526;44.600;26.032;2023-06-04T00:49:05;100885.34;;;17.05;43.17
79123;BME280;68526;44.600;26.032;2023-06-04T00:49:21;100886.50;;;17.04;43.52
79123;BME280;68526;44.600;26.032;2023-06-04T00:49:37;100878.66;;;17.06;43.63
79123;BME280;68526;44.600;26.032;2023-06-04T00:49:56;100887.75;;;17.06;44.25
79123;BME280;68526;44.600;26.032;2023-06-04T00:50:13;100885.34;;;17.05;43.57
79123;BME280;68526;44.600;26.032;2023-06-04T00:50:31;100883.75;;;17.04;43.63
79123;BME280;68526;44.600;26.032;2023-06-04T00:50:48;100882.94;;;17.03;43.59
79123;BME280;68526;44.600;26.032;2023-06-04T00:51:04;100882.94;;;17.03;43.71
79123;BME280;68526;44.600;26.032;2023-06-04T00:51:21;100883.75;;;17.04;43.54
79123;BME280;68526;44.600;26.032;2023-06-04T00:51:38;100877.75;;;17.02;43.82
79123;BME280;68526;44.600;26.032;2023-06-04T00:51:54;100884.09;;;17.02;43.25
79123;BME280;68526;44.600;26.032;2023-06-04T00:52:10;100888.34;;;17.00;43.45
79123;BME280;68526;44.600;26.032;2023-06-04T00:52:26;100890.31;;;16.99;43.22
79123;BME280;68526;44.600;26.032;2023-06-04T00:52:42;100883.31;;;17.02;43.71
79123;BME280;68526;44.600;26.032;2023-06-04T00:52:59;100885.59;;;17.00;43.21
79123;BME280;68526;44.600;26.032;2023-06-04T00:53:15;100886.31;;;16.97;43.01
79123;BME280;68526;44.600;26.032;2023-06-04T00:53:31;100888.28;;;16.96;43.14
79123;BME280;68526;44.600;26.032;2023-06-04T00:53:47;100880.78;;;16.97;43.20
79123;BME280;68526;44.600;26.032;2023-06-04T00:54:04;100886.31;;;16.97;43.32
79123;BME280;68526;44.600;26.032;2023-06-04T00:54:24;100884.69;;;16.96;43.28
79123;BME280;68526;44.600;26.032;2023-06-04T00:54:42;100879.16;;;16.96;43.42
79123;BME280;68526;44.600;26.032;2023-06-04T00:54:58;100887.91;;;16.98;43.17
79123;BME280;68526;44.600;26.032;2023-06-04T00:55:13;100881.22;;;16.99;43.67
79123;BME280;68526;44.600;26.032;2023-06-04T00:55:30;100885.94;;;16.98;43.26
79123;BME280;68526;44.600;26.032;2023-06-04T00:55:46;100885.84;;;16.95;43.17
79123;BME280;68526;44.600;26.032;2023-06-04T00:56:04;100879.84;;;16.93;43.24
79123;BME280;68526;44.600;26.032;2023-06-04T00:56:21;100882.63;;;16.93;43.15
79123;BME280;68526;44.600;26.032;2023-06-04T00:56:36;100886.19;;;16.93;43.24
79123;BME280;68526;44.600;26.032;2023-06-04T00:56:53;100880.28;;;16.95;43.24
79123;BME280;68526;44.600;26.032;2023-06-04T00:57:09;100879.84;;;16.93;43.28
79123;BME280;68526;44.600;26.032;2023-06-04T00:57:25;100882.63;;;16.93;43.05
79123;BME280;68526;44.600;26.032;2023-06-04T00:57:42;100883.78;;;16.92;43.08
79123;BME280;68526;44.600;26.032;2023-06-04T00:57:57;100883.78;;;16.92;43.41
79123;BME280;68526;44.600;26.032;2023-06-04T00:58:13;100875.84;;;16.90;43.24
79123;BME280;68526;44.600;26.032;2023-06-04T00:58:30;100885.97;;;16.86;43.12
79123;BME280;68526;44.600;26.032;2023-06-04T00:58:46;100880.81;;;16.85;42.96
79123;BME280;68526;44.600;26.032;2023-06-04T00:59:03;100882.50;;;16.89;42.95
79123;BME280;68526;44.600;26.032;2023-06-04T00:59:20;100884.59;;;16.92;43.34
79123;BME280;68526;44.600;26.032;2023-06-04T00:59:37;100885.38;;;16.93;43.43
79123;BME280;68526;44.600;26.032;2023-06-04T00:59:54;100890.91;;;16.93;43.17
79123;BME280;68526;44.600;26.032;2023-06-04T01:00:11;100888.84;;;16.90;43.19
79123;BME280;68526;44.600;26.032;2023-06-04T01:00:27;100885.28;;;16.89;43.22
79123;BME280;68526;44.600;26.032;2023-06-04T01:00:44;100886.91;;;16.90;43.25
79123;BME280;68526;44.600;26.032;2023-06-04T01:01:04;100884.94;;;16.91;43.71
79123;BME280;68526;44.600;26.032;2023-06-04T01:01:26;100893.69;;;16.93;44.05
79123;BME280;68526;44.600;26.032;2023-06-04T01:01:46;100885.38;;;16.93;43.44
79123;BME280;68526;44.600;26.032;2023-06-04T01:02:09;100877.09;;;16.93;43.23
79123;BME280;68526;44.600;26.032;2023-06-04T01:02:28;100892.09;;;16.92;44.08
79123;BME280;68526;44.600;26.032;2023-06-04T01:02:48;100881.00;;;16.92;43.40
79123;BME280;68526;44.600;26.032;2023-06-04T01:03:11;100889.31;;;16.92;43.78
79123;BME280;68526;44.600;26.032;2023-06-04T01:03:31;100888.50;;;16.91;43.40
79123;BME280;68526;44.600;26.032;2023-06-04T01:03:51;100888.03;;;16.89;43.28
79123;BME280;68526;44.600;26.032;2023-06-04T01:04:16;100884.94;;;16.91;43.53
79123;BME280;68526;44.600;26.032;2023-06-04T01:04:44;100892.44;;;16.90;43.40
79123;BME280;68526;44.600;26.032;2023-06-04T01:05:08;100891.53;;;16.86;43.20
79123;BME280;68526;44.600;26.032;2023-06-04T01:05:32;100887.16;;;16.85;42.87
79123;BME280;68526;44.600;26.032;2023-06-04T01:05:57;100886.44;;;16.88;43.05
79123;BME280;68526;44.600;26.032;2023-06-04T01:06:21;100880.91;;;16.88;43.17
79123;BME280;68526;44.600;26.032;2023-06-04T01:06:43;100884.47;;;16.89;42.83
79123;BME280;68526;44.600;26.032;2023-06-04T01:07:00;100889.19;;;16.88;43.53
79123;BME280;68526;44.600;26.032;2023-06-04T01:07:19;100887.72;;;16.91;43.54
79123;BME280;68526;44.600;26.032;2023-06-04T01:07:36;100882.97;;;16.91;43.54
79123;BME280;68526;44.600;26.032;2023-06-04T01:07:53;100889.66;;;16.90;43.76
79123;BME280;68526;44.600;26.032;2023-06-04T01:08:09;100887.72;;;16.91;43.48
79123;BME280;68526;44.600;26.032;2023-06-04T01:08:26;100896.34;;;16.89;43.71
79123;BME280;68526;44.600;26.032;2023-06-04T01:08:43;100894.38;;;16.90;43.79
79123;BME280;68526;44.600;26.032;2023-06-04T01:09:00;100896.00;;;16.91;43.63
79123;BME280;68526;44.600;26.032;2023-06-04T01:09:18;100899.91;;;16.90;42.93
79123;BME280;68526;44.600;26.032;2023-06-04T01:09:34;100897.97;;;16.90;43.28
79123;BME280;68526;44.600;26.032;2023-06-04T01:09:50;100886.06;;;16.90;43.15
79123;BME280;68526;44.600;26.032;2023-06-04T01:10:07;100892.78;;;16.89;43.05
79123;BME280;68526;44.600;26.032;2023-06-04T01:10:23;100897.06;;;16.86;42.83
79123;BME280;68526;44.600;26.032;2023-06-04T01:10:50;100887.22;;;16.89;43.27
79123;BME280;68526;44.600;26.032;2023-06-04T01:11:06;100901.88;;;16.89;43.06
79123;BME280;68526;44.600;26.032;2023-06-04T01:11:33;100887.47;;;16.83;43.78
79123;BME280;68526;44.600;26.032;2023-06-04T01:11:50;100896.34;;;16.89;43.64
79123;BME280;68526;44.600;26.032;2023-06-04T01:12:06;100895.53;;;16.89;43.24
79123;BME280;68526;44.600;26.032;2023-06-04T01:12:23;100879.88;;;16.80;43.42
79123;BME280;68526;44.600;26.032;2023-06-04T01:12:40;100892.31;;;16.87;43.35
79123;BME280;68526;44.600;26.032;2023-06-04T01:12:56;100889.91;;;16.85;43.34
79123;BME280;68526;44.600;26.032;2023-06-04T01:13:11;100895.09;;;16.87;43.91
79123;BME280;68526;44.600;26.032;2023-06-04T01:13:27;100897.50;;;16.88;43.85
79123;BME280;68526;44.600;26.032;2023-06-04T01:13:43;100892.44;;;16.90;43.77
79123;BME280;68526;44.600;26.032;2023-06-04T01:14:00;100892.44;;;16.90;43.16
79123;BME280;68526;44.600;26.032;2023-06-04T01:14:15;100899.09;;;16.89;43.55
79123;BME280;68526;44.600;26.032;2023-06-04T01:14:33;100896.00;;;16.91;43.30
79123;BME280;68526;44.600;26.032;2023-06-04T01:14:49;100898.78;;;16.91;43.61
79123;BME280;68526;44.600;26.032;2023-06-04T01:15:07;100894.38;;;16.90;43.51
79123;BME280;68526;44.600;26.032;2023-06-04T01:15:23;100886.91;;;16.90;43.89
79123;BME280;68526;44.600;26.032;2023-06-04T01:15:39;100895.53;;;16.89;43.75
79123;BME280;68526;44.600;26.032;2023-06-04T01:15:55;100893.56;;;16.89;43.10
79123;BME280;68526;44.600;26.032;2023-06-04T01:16:12;100891.97;;;16.88;43.21
79123;BME280;68526;44.600;26.032;2023-06-04T01:16:35;100885.53;;;16.84;43.03
79123;BME280;68526;44.600;26.032;2023-06-04T01:16:58;100899.47;;;16.88;43.34
79123;BME280;68526;44.600;26.032;2023-06-04T01:17:22;100891.53;;;16.86;43.56
79123;BME280;68526;44.600;26.032;2023-06-04T01:17:40;100897.50;;;16.88;43.28
79123;BME280;68526;44.600;26.032;2023-06-04T01:17:59;100888.03;;;16.89;43.31
79123;BME280;68526;44.600;26.032;2023-06-04T01:18:23;100889.56;;;16.87;43.31
79123;BME280;68526;44.600;26.032;2023-06-04T01:18:43;100892.78;;;16.89;43.20
79123;BME280;68526;44.600;26.032;2023-06-04T01:19:02;100885.63;;;16.88;43.46
79123;BME280;68526;44.600;26.032;2023-06-04T01:19:34;100899.47;;;16.88;43.14
79123;BME280;68526;44.600;26.032;2023-06-04T01:20:14;100889.31;;;16.92;43.34
79123;BME280;68526;44.600;26.032;2023-06-04T01:20:37;100882.84;;;16.88;43.72
79123;BME280;68526;44.600;26.032;2023-06-04T01:20:56;100894.38;;;16.90;43.36
79123;BME280;68526;44.600;26.032;2023-06-04T01:21:13;100894.03;;;16.91;44.09
79123;BME280;68526;44.600;26.032;2023-06-04T01:21:34;100892.53;;;16.94;43.96
79123;BME280;68526;44.600;26.032;2023-06-04T01:21:53;100886.53;;;16.92;43.62
79123;BME280;68526;44.600;26.032;2023-06-04T01:22:17;100892.88;;;16.92;43.38
79123;BME280;68526;44.600;26.032;2023-06-04T01:22:39;100901.63;;;16.94;43.66
79123;BME280;68526;44.600;26.032;2023-06-04T01:23:14;100898.06;;;16.94;43.34
79123;BME280;68526;44.600;26.032;2023-06-04T01:23:36;100896.81;;;16.91;43.05
79123;BME280;68526;44.600;26.032;2023-06-04T01:23:55;100892.44;;;16.90;42.91
79123;BME280;68526;44.600;26.032;2023-06-04T01:24:15;100888.84;;;16.90;42.99
79123;BME280;68526;44.600;26.032;2023-06-04T01:24:34;100888.03;;;16.89;43.62
79123;BME280;68526;44.600;26.032;2023-06-04T01:24:56;100893.69;;;16.93;43.39
79123;BME280;68526;44.600;26.032;2023-06-04T01:25:21;100895.53;;;16.89;43.12
79123;BME280;68526;44.600;26.032;2023-06-04T01:25:40;100898.41;;;16.92;43.52
79123;BME280;68526;44.600;26.032;2023-06-04T01:25:56;100895.66;;;16.92;43.19
79123;BME280;68526;44.600;26.032;2023-06-04T01:26:13;100898.78;;;16.91;42.99
79123;BME280;68526;44.600;26.032;2023-06-04T01:26:30;100896.47;;;16.93;43.27
79123;BME280;68526;44.600;26.032;2023-06-04T01:26:48;100892.88;;;16.92;43.24
79123;BME280;68526;44.600;26.032;2023-06-04T01:27:05;100894.03;;;16.91;43.40
79123;BME280;68526;44.600;26.032;2023-06-04T01:27:23;100891.28;;;16.91;43.48
79123;BME280;68526;44.600;26.032;2023-06-04T01:27:39;100892.53;;;16.94;43.74
79123;BME280;68526;44.600;26.032;2023-06-04T01:27:56;100896.81;;;16.91;43.77
79123;BME280;68526;44.600;26.032;2023-06-04T01:28:13;100897.13;;;16.90;43.34
79123;BME280;68526;44.600;26.032;2023-06-04T01:28:33;100902.34;;;16.91;43.37
79123;BME280;68526;44.600;26.032;2023-06-04T01:28:49;100894.38;;;16.90;43.04
79123;BME280;68526;44.600;26.032;2023-06-04T01:29:06;100892.09;;;16.92;43.03